Lancaster Airport


Codes: KLNS/LNS
Name: Lancaster Airport
City: Lancaster
Country: United States
Elevation: 403 ft.
Wikipedia:

Photos at Lancaster Airport


   Photos courtesy of SpottingLog. You can add your own sightings and photos by signing up for a free trial today.



No photos found.

Weather at Lancaster Airport


Time (UTC)DescriptionTempratureWindCloud coverageVisibilityPressureHumidity
19-Apr-2024 03:00Overcast Clouds10°C7 mph, E100%10000m1020hPa79%
19-Apr-2024 06:00Overcast Clouds9°C4 mph, SE95%10000m1020hPa84%
19-Apr-2024 09:00Broken Clouds7°C4 mph, SE83%10000m1021hPa89%
19-Apr-2024 12:00Broken Clouds7°C7 mph, SE55%10000m1021hPa87%
19-Apr-2024 15:00Broken Clouds12°C13 mph, SE78%10000m1019hPa75%
19-Apr-2024 18:00Light Rain13°C11 mph, S89%10000m1017hPa81%
19-Apr-2024 21:00Light Rain11°C9 mph, SE100%10000m1015hPa90%
20-Apr-2024 00:00Light Rain10°C11 mph, SE97%10000m1015hPa95%
20-Apr-2024 03:00Light Rain10°C7 mph, S100%10000m1015hPa96%
20-Apr-2024 06:00Light Rain10°C7 mph, NW100%10000m1016hPa98%
20-Apr-2024 09:00Overcast Clouds8°C7 mph, NW92%10000m1016hPa87%
20-Apr-2024 12:00Broken Clouds9°C4 mph, NW76%10000m1017hPa77%
20-Apr-2024 15:00Scattered Clouds13°C13 mph, W41%10000m1017hPa56%
20-Apr-2024 18:00Scattered Clouds14°C20 mph, NW40%10000m1016hPa48%
20-Apr-2024 21:00Broken Clouds13°C18 mph, NW53%10000m1015hPa54%
21-Apr-2024 00:00Scattered Clouds8°C9 mph, NW30%10000m1017hPa61%
21-Apr-2024 03:00Clear Sky4°C7 mph, NW1%10000m1019hPa70%
21-Apr-2024 06:00Scattered Clouds3°C4 mph, W30%10000m1019hPa71%
21-Apr-2024 09:00Broken Clouds2°C4 mph, W52%10000m1019hPa73%
21-Apr-2024 12:00Scattered Clouds5°C4 mph, W50%10000m1020hPa68%
21-Apr-2024 15:00Overcast Clouds10°C9 mph, W98%10000m1020hPa56%
21-Apr-2024 18:00Overcast Clouds12°C11 mph, W99%10000m1017hPa50%
21-Apr-2024 21:00Overcast Clouds12°C11 mph, W100%10000m1016hPa50%
22-Apr-2024 00:00Overcast Clouds8°C7 mph, SW100%10000m1016hPa68%
22-Apr-2024 03:00Overcast Clouds6°C7 mph, W98%10000m1017hPa75%
22-Apr-2024 06:00Overcast Clouds5°C4 mph, NW99%10000m1017hPa75%
22-Apr-2024 09:00Few Clouds4°C4 mph, NW21%10000m1017hPa74%
22-Apr-2024 12:00Few Clouds6°C4 mph, NW11%10000m1018hPa70%
22-Apr-2024 15:00Clear Sky12°C7 mph, N0%10000m1018hPa53%
22-Apr-2024 18:00Clear Sky15°C4 mph, NW2%10000m1017hPa46%
22-Apr-2024 21:00Few Clouds15°C4 mph, NW23%10000m1016hPa46%
23-Apr-2024 00:00Scattered Clouds10°C7 mph, S28%10000m1017hPa62%
23-Apr-2024 03:00Scattered Clouds9°C4 mph, S35%10000m1018hPa66%
23-Apr-2024 06:00Scattered Clouds7°C2 mph, SW40%10000m1019hPa72%
23-Apr-2024 09:00Clear Sky6°C4 mph, S8%10000m1019hPa76%
23-Apr-2024 12:00Clear Sky9°C4 mph, S10%10000m1020hPa75%
23-Apr-2024 15:00Few Clouds15°C13 mph, S23%10000m1019hPa55%
23-Apr-2024 18:00Scattered Clouds17°C18 mph, S29%10000m1017hPa52%
23-Apr-2024 21:00Broken Clouds16°C18 mph, S80%10000m1016hPa61%
24-Apr-2024 00:00Overcast Clouds13°C20 mph, S90%10000m1015hPa58%